Time,TemperatureF,DewpointF,PressureIn,WindDirection,WindDirectionDegrees,WindSpeedMPH,WindSpeedGustMPH,Humidity,HourlyPrecipIn,Conditions,Clouds,dailyrainin,SoftwareType,DateUTC
2013-01-13 00:02:00,-2.0,-12.0,-100.00,WSW,250,10.0,12.0,60,-99.99,,,-99.99,,2013-01-13 07:02:00,
2013-01-13 00:12:00,-2.0,-12.0,-100.00,WSW,250,10.0,12.0,60,-99.99,,,-99.99,,2013-01-13 07:12:00,
2013-01-13 00:22:00,-2.0,-12.0,-100.00,WSW,245,14.0,16.0,61,-99.99,,,-99.99,,2013-01-13 07:22:00,
2013-01-13 00:32:00,-2.0,-12.0,-100.00,WSW,255,11.0,13.0,62,-99.99,,,-99.99,,2013-01-13 07:32:00,
2013-01-13 00:42:00,-3.0,-12.0,-100.00,WSW,255,9.0,12.0,62,-99.99,,,-99.99,,2013-01-13 07:42:00,
2013-01-13 00:52:00,-3.0,-12.0,-100.00,WSW,255,9.0,12.0,62,-99.99,,,-99.99,,2013-01-13 07:52:00,
2013-01-13 01:02:00,-2.0,-12.0,-100.00,West,270,6.0,9.0,62,-99.99,,,-99.99,,2013-01-13 08:02:00,
2013-01-13 01:12:00,-2.0,-12.0,-100.00,West,270,6.0,9.0,62,-99.99,,,-99.99,,2013-01-13 08:12:00,
2013-01-13 01:22:00,-2.0,-12.0,-100.00,West,265,6.0,7.0,63,-99.99,,,-99.99,,2013-01-13 08:22:00,
2013-01-13 01:32:00,-2.0,-11.0,-100.00,West,280,4.0,7.0,63,-99.99,,,-99.99,,2013-01-13 08:32:00,
2013-01-13 01:42:00,-1.0,-11.0,-100.00,West,275,6.0,7.0,63,-99.99,,,-99.99,,2013-01-13 08:42:00,
2013-01-13 01:53:00,-1.0,-11.0,-100.00,West,275,6.0,7.0,63,-99.99,,,-99.99,,2013-01-13 08:53:00,
2013-01-13 02:02:00,-1.0,-10.0,-100.00,West,275,11.0,13.0,63,-99.99,,,-99.99,,2013-01-13 09:02:00,
2013-01-13 02:12:00,-1.0,-10.0,-100.00,West,275,11.0,13.0,63,-99.99,,,-99.99,,2013-01-13 09:12:00,
2013-01-13 02:22:00,-1.0,-11.0,-100.00,West,280,9.0,12.0,63,-99.99,,,-99.99,,2013-01-13 09:22:00,
2013-01-13 02:32:00,0.0,-10.0,-100.00,West,270,11.0,12.0,62,-99.99,,,-99.99,,2013-01-13 09:32:00,
2013-01-13 02:42:00,0.0,-10.0,-100.00,West,260,13.0,14.0,62,-99.99,,,-99.99,,2013-01-13 09:42:00,
2013-01-13 02:52:00,0.0,-10.0,-100.00,West,260,13.0,14.0,62,-99.99,,,-99.99,,2013-01-13 09:52:00,
2013-01-13 03:02:00,0.0,-10.0,-100.00,West,265,14.0,15.0,62,-99.99,,,-99.99,,2013-01-13 10:02:00,
2013-01-13 03:12:00,0.0,-10.0,-100.00,West,265,14.0,15.0,62,-99.99,,,-99.99,,2013-01-13 10:12:00,
2013-01-13 03:22:00,0.0,-10.0,-100.00,West,275,11.0,14.0,62,-99.99,,,-99.99,,2013-01-13 10:22:00,
2013-01-13 03:32:00,0.0,-10.0,-100.00,West,280,12.0,14.0,62,-99.99,,,-99.99,,2013-01-13 10:32:00,
2013-01-13 03:42:00,-2.0,-11.0,-100.00,WNW,285,6.0,12.0,62,-99.99,,,-99.99,,2013-01-13 10:42:00,
2013-01-13 03:53:00,-2.0,-11.0,-100.00,WNW,285,6.0,12.0,62,-99.99,,,-99.99,,2013-01-13 10:53:00,
2013-01-13 04:02:00,-2.0,-12.0,-100.00,WNW,290,11.0,11.0,64,-99.99,,,-99.99,,2013-01-13 11:02:00,
2013-01-13 04:12:00,-2.0,-12.0,-100.00,WNW,290,11.0,11.0,64,-99.99,,,-99.99,,2013-01-13 11:12:00,
2013-01-13 04:22:00,-4.0,-13.0,-100.00,WNW,300,9.0,11.0,64,-99.99,,,-99.99,,2013-01-13 11:22:00,
2013-01-13 04:32:00,-3.0,-12.0,-100.00,WNW,295,9.0,11.0,65,-99.99,,,-99.99,,2013-01-13 11:32:00,
2013-01-13 04:42:00,-1.0,-9.0,-100.00,WNW,285,13.0,15.0,66,-99.99,,,-99.99,,2013-01-13 11:42:00,
2013-01-13 04:53:00,-1.0,-9.0,-100.00,WNW,285,13.0,15.0,66,-99.99,,,-99.99,,2013-01-13 11:53:00,
2013-01-13 05:03:00,0.0,-7.0,-100.00,WNW,290,9.0,12.0,68,-99.99,,,-99.99,,2013-01-13 12:03:00,
2013-01-13 05:12:00,0.0,-7.0,-100.00,WNW,290,9.0,12.0,68,-99.99,,,-99.99,,2013-01-13 12:12:00,
2013-01-13 05:22:00,1.0,-7.0,-100.00,WNW,290,7.0,11.0,69,-99.99,,,-99.99,,2013-01-13 12:22:00,
2013-01-13 05:32:00,2.0,-6.0,-100.00,WNW,295,6.0,9.0,71,-99.99,,,-99.99,,2013-01-13 12:32:00,
2013-01-13 05:42:00,2.0,-6.0,-100.00,WNW,285,4.0,9.0,71,-99.99,,,-99.99,,2013-01-13 12:42:00,
2013-01-13 05:53:00,2.0,-6.0,-100.00,WNW,285,4.0,9.0,71,-99.99,,,-99.99,,2013-01-13 12:53:00,
2013-01-13 06:02:00,2.0,-5.0,-100.00,West,280,7.0,10.0,71,-99.99,,,-99.99,,2013-01-13 13:02:00,
2013-01-13 06:12:00,2.0,-5.0,-100.00,West,280,7.0,10.0,71,-99.99,,,-99.99,,2013-01-13 13:12:00,
2013-01-13 06:22:00,3.0,-4.0,-100.00,WNW,285,11.0,13.0,71,-99.99,,,-99.99,,2013-01-13 13:22:00,
2013-01-13 06:33:00,4.0,-4.0,-100.00,WNW,285,12.0,17.0,70,-99.99,,,-99.99,,2013-01-13 13:33:00,
2013-01-13 06:42:00,4.0,-3.0,-100.00,WNW,285,12.0,15.0,70,-99.99,,,-99.99,,2013-01-13 13:42:00,
2013-01-13 06:53:00,4.0,-3.0,-100.00,WNW,285,12.0,15.0,70,-99.99,,,-99.99,,2013-01-13 13:53:00,
2013-01-13 07:03:00,4.0,-3.0,-100.00,West,280,11.0,13.0,70,-99.99,,,-99.99,,2013-01-13 14:03:00,
2013-01-13 07:12:00,4.0,-3.0,-100.00,West,280,11.0,13.0,70,-99.99,,,-99.99,,2013-01-13 14:12:00,
2013-01-13 07:22:00,5.0,-3.0,-100.00,WNW,290,10.0,17.0,70,-99.99,,,-99.99,,2013-01-13 14:22:00,
2013-01-13 07:33:00,5.0,-3.0,-100.00,WNW,295,12.0,17.0,70,-99.99,,,-99.99,,2013-01-13 14:33:00,
2013-01-13 07:43:00,4.0,-3.0,-100.00,WNW,290,12.0,16.0,70,-99.99,,,-99.99,,2013-01-13 14:43:00,
2013-01-13 07:53:00,4.0,-3.0,-100.00,WNW,290,12.0,16.0,70,-99.99,,,-99.99,,2013-01-13 14:53:00,
2013-01-13 08:03:00,4.0,-3.0,-100.00,WNW,300,13.0,17.0,70,-99.99,,,-99.99,,2013-01-13 15:03:00,
2013-01-13 08:12:00,4.0,-3.0,-100.00,WNW,300,13.0,17.0,70,-99.99,,,-99.99,,2013-01-13 15:12:00,
2013-01-13 08:23:00,4.0,-3.0,-100.00,WNW,300,13.0,18.0,71,-99.99,,,-99.99,,2013-01-13 15:23:00,
2013-01-13 08:33:00,3.0,-5.0,-100.00,NW,305,14.0,16.0,71,-99.99,,,-99.99,,2013-01-13 15:33:00,
2013-01-13 08:43:00,2.0,-5.0,-100.00,WNW,295,12.0,17.0,71,-99.99,,,-99.99,,2013-01-13 15:43:00,
2013-01-13 08:53:00,2.0,-5.0,-100.00,WNW,295,12.0,17.0,71,-99.99,,,-99.99,,2013-01-13 15:53:00,
2013-01-13 09:03:00,1.0,-6.0,-100.00,WNW,300,12.0,15.0,71,-99.99,,,-99.99,,2013-01-13 16:03:00,
2013-01-13 09:12:00,1.0,-6.0,-100.00,WNW,300,12.0,15.0,71,-99.99,,,-99.99,,2013-01-13 16:12:00,
2013-01-13 09:23:00,2.0,-5.0,-100.00,WNW,290,16.0,18.0,71,-99.99,,,-99.99,,2013-01-13 16:23:00,
2013-01-13 09:33:00,1.0,-7.0,-100.00,WNW,290,17.0,21.0,70,-99.99,,,-99.99,,2013-01-13 16:33:00,
2013-01-13 09:43:00,0.0,-7.0,-100.00,WNW,290,16.0,19.0,70,-99.99,,,-99.99,,2013-01-13 16:43:00,
2013-01-13 09:53:00,0.0,-7.0,-100.00,WNW,290,16.0,19.0,70,-99.99,,,-99.99,,2013-01-13 16:53:00,
2013-01-13 10:03:00,0.0,-7.0,-100.00,WNW,300,15.0,19.0,70,-99.99,,,-99.99,,2013-01-13 17:03:00,
2013-01-13 10:12:00,0.0,-7.0,-100.00,WNW,300,15.0,19.0,70,-99.99,,,-99.99,,2013-01-13 17:12:00,
2013-01-13 10:22:00,0.0,-7.0,-100.00,WNW,295,16.0,20.0,70,-99.99,,,-99.99,,2013-01-13 17:22:00,
2013-01-13 10:33:00,0.0,-7.0,-100.00,WNW,295,18.0,22.0,70,-99.99,,,-99.99,,2013-01-13 17:33:00,
2013-01-13 10:42:00,0.0,-7.0,-100.00,WNW,300,17.0,21.0,69,-99.99,,,-99.99,,2013-01-13 17:42:00,
2013-01-13 10:53:00,0.0,-7.0,-100.00,WNW,300,17.0,21.0,69,-99.99,,,-99.99,,2013-01-13 17:53:00,
2013-01-13 11:03:00,0.0,-7.0,-100.00,WNW,295,19.0,26.0,69,-99.99,,,-99.99,,2013-01-13 18:03:00,
2013-01-13 11:12:00,0.0,-7.0,-100.00,WNW,295,19.0,26.0,69,-99.99,,,-99.99,,2013-01-13 18:12:00,
2013-01-13 11:23:00,1.0,-7.0,-100.00,NW,305,17.0,26.0,69,-99.99,,,-99.99,,2013-01-13 18:23:00,
2013-01-13 11:33:00,1.0,-7.0,-100.00,NW,305,14.0,21.0,69,-99.99,,,-99.99,,2013-01-13 18:33:00,
2013-01-13 11:43:00,1.0,-7.0,-100.00,NW,310,15.0,19.0,69,-99.99,,,-99.99,,2013-01-13 18:43:00,
2013-01-13 11:53:00,1.0,-7.0,-100.00,NW,310,15.0,19.0,69,-99.99,,,-99.99,,2013-01-13 18:53:00,
2013-01-13 12:02:00,2.0,-6.0,-100.00,NW,310,11.0,16.0,69,-99.99,,,-99.99,,2013-01-13 19:02:00,
2013-01-13 12:12:00,2.0,-6.0,-100.00,NW,310,11.0,16.0,69,-99.99,,,-99.99,,2013-01-13 19:12:00,
2013-01-13 12:22:00,2.0,-6.0,-100.00,WNW,300,14.0,16.0,69,-99.99,,,-99.99,,2013-01-13 19:22:00,
2013-01-13 12:33:00,2.0,-6.0,-100.00,NW,310,12.0,14.0,69,-99.99,,,-99.99,,2013-01-13 19:33:00,
2013-01-13 12:43:00,2.0,-5.0,-100.00,NW,315,9.0,13.0,68,-99.99,,,-99.99,,2013-01-13 19:43:00,
2013-01-13 12:53:00,2.0,-5.0,-100.00,NW,315,9.0,13.0,68,-99.99,,,-99.99,,2013-01-13 19:53:00,
2013-01-13 13:03:00,3.0,-5.0,-100.00,NW,310,10.0,12.0,68,-99.99,,,-99.99,,2013-01-13 20:03:00,
2013-01-13 13:12:00,3.0,-5.0,-100.00,NW,310,10.0,12.0,68,-99.99,,,-99.99,,2013-01-13 20:12:00,
2013-01-13 13:22:00,3.0,-5.0,-100.00,NW,305,7.0,12.0,67,-99.99,,,-99.99,,2013-01-13 20:22:00,
2013-01-13 13:33:00,4.0,-5.0,-100.00,WNW,295,9.0,12.0,66,-99.99,,,-99.99,,2013-01-13 20:33:00,
2013-01-13 13:43:00,3.0,-5.0,-100.00,NW,305,9.0,11.0,66,-99.99,,,-99.99,,2013-01-13 20:43:00,
2013-01-13 13:53:00,3.0,-5.0,-100.00,NW,305,9.0,11.0,66,-99.99,,,-99.99,,2013-01-13 20:53:00,
2013-01-13 14:03:00,4.0,-5.0,-100.00,NW,305,11.0,12.0,65,-99.99,,,-99.99,,2013-01-13 21:03:00,
2013-01-13 14:12:00,4.0,-5.0,-100.00,NW,305,11.0,12.0,65,-99.99,,,-99.99,,2013-01-13 21:12:00,
2013-01-13 14:23:00,4.0,-5.0,-100.00,NW,305,7.0,12.0,65,-99.99,,,-99.99,,2013-01-13 21:23:00,
2013-01-13 14:33:00,4.0,-5.0,-100.00,NW,310,9.0,10.0,64,-99.99,,,-99.99,,2013-01-13 21:33:00,
2013-01-13 14:43:00,5.0,-4.0,-100.00,WNW,285,6.0,10.0,64,-99.99,,,-99.99,,2013-01-13 21:43:00,
2013-01-13 14:53:00,5.0,-4.0,-100.00,WNW,285,6.0,10.0,64,-99.99,,,-99.99,,2013-01-13 21:53:00,
2013-01-13 15:02:00,5.0,-5.0,-100.00,WNW,295,9.0,12.0,64,-99.99,,,-99.99,,2013-01-13 22:02:00,
2013-01-13 15:12:00,5.0,-5.0,-100.00,WNW,295,9.0,12.0,64,-99.99,,,-99.99,,2013-01-13 22:12:00,
2013-01-13 15:22:00,5.0,-5.0,-100.00,WNW,295,11.0,13.0,64,-99.99,,,-99.99,,2013-01-13 22:22:00,
2013-01-13 15:33:00,4.0,-5.0,-100.00,WNW,300,9.0,12.0,65,-99.99,,,-99.99,,2013-01-13 22:33:00,
2013-01-13 15:43:00,4.0,-5.0,-100.00,NW,305,10.0,12.0,66,-99.99,,,-99.99,,2013-01-13 22:43:00,
2013-01-13 15:52:00,4.0,-5.0,-100.00,NW,305,10.0,12.0,66,-99.99,,,-99.99,,2013-01-13 22:52:00,
2013-01-13 16:02:00,5.0,-4.0,-100.00,WNW,300,9.0,12.0,66,-99.99,,,-99.99,,2013-01-13 23:02:00,
2013-01-13 16:12:00,5.0,-4.0,-100.00,WNW,300,9.0,12.0,66,-99.99,,,-99.99,,2013-01-13 23:12:00,
2013-01-13 16:22:00,4.0,-4.0,-100.00,NW,305,11.0,12.0,66,-99.99,,,-99.99,,2013-01-13 23:22:00,
2013-01-13 16:33:00,4.0,-5.0,-100.00,WNW,300,12.0,16.0,66,-99.99,,,-99.99,,2013-01-13 23:33:00,
2013-01-13 16:42:00,4.0,-5.0,-100.00,WNW,300,12.0,15.0,66,-99.99,,,-99.99,,2013-01-13 23:42:00,
2013-01-13 16:53:00,4.0,-5.0,-100.00,WNW,300,12.0,15.0,66,-99.99,,,-99.99,,2013-01-13 23:53:00,
2013-01-13 17:03:00,4.0,-5.0,-100.00,NW,305,8.0,11.0,67,-99.99,,,-99.99,,2013-01-14 00:03:00,
2013-01-13 17:12:00,4.0,-5.0,-100.00,NW,305,8.0,11.0,67,-99.99,,,-99.99,,2013-01-14 00:12:00,
2013-01-13 17:22:00,4.0,-5.0,-100.00,WNW,300,8.0,11.0,67,-99.99,,,-99.99,,2013-01-14 00:22:00,
2013-01-13 17:33:00,3.0,-6.0,-100.00,WNW,290,9.0,12.0,66,-99.99,,,-99.99,,2013-01-14 00:33:00,
2013-01-13 17:43:00,2.0,-7.0,-100.00,NW,305,9.0,11.0,66,-99.99,,,-99.99,,2013-01-14 00:43:00,
2013-01-13 17:53:00,2.0,-7.0,-100.00,NW,305,9.0,11.0,66,-99.99,,,-99.99,,2013-01-14 00:53:00,
2013-01-13 18:03:00,1.0,-7.0,-100.00,WNW,290,7.0,9.0,66,-99.99,,,-99.99,,2013-01-14 01:03:00,
2013-01-13 18:12:00,1.0,-7.0,-100.00,WNW,290,7.0,9.0,66,-99.99,,,-99.99,,2013-01-14 01:12:00,
2013-01-13 18:22:00,1.0,-8.0,-100.00,WNW,285,4.0,7.0,66,-99.99,,,-99.99,,2013-01-14 01:22:00,
2013-01-13 18:32:00,0.0,-8.0,-100.00,WNW,295,4.0,6.0,66,-99.99,,,-99.99,,2013-01-14 01:32:00,
2013-01-13 18:42:00,0.0,-9.0,-100.00,WNW,285,4.0,6.0,67,-99.99,,,-99.99,,2013-01-14 01:42:00,
2013-01-13 18:53:00,0.0,-9.0,-100.00,WNW,285,4.0,6.0,67,-99.99,,,-99.99,,2013-01-14 01:53:00,
2013-01-13 19:02:00,0.0,-8.0,-100.00,West,275,4.0,6.0,67,-99.99,,,-99.99,,2013-01-14 02:02:00,
2013-01-13 19:12:00,0.0,-8.0,-100.00,West,275,4.0,6.0,67,-99.99,,,-99.99,,2013-01-14 02:12:00,
2013-01-13 19:22:00,0.0,-8.0,-100.00,West,280,4.0,6.0,68,-99.99,,,-99.99,,2013-01-14 02:22:00,
2013-01-13 19:32:00,2.0,-6.0,-100.00,WNW,290,7.0,9.0,68,-99.99,,,-99.99,,2013-01-14 02:32:00,
2013-01-13 19:42:00,2.0,-6.0,-100.00,WNW,290,9.0,11.0,68,-99.99,,,-99.99,,2013-01-14 02:42:00,
2013-01-13 19:53:00,2.0,-6.0,-100.00,WNW,290,9.0,11.0,68,-99.99,,,-99.99,,2013-01-14 02:53:00,
2013-01-13 20:02:00,2.0,-5.0,-100.00,WNW,285,9.0,11.0,69,-99.99,,,-99.99,,2013-01-14 03:02:00,
2013-01-13 20:12:00,2.0,-5.0,-100.00,WNW,285,9.0,11.0,69,-99.99,,,-99.99,,2013-01-14 03:12:00,
2013-01-13 20:22:00,3.0,-5.0,-100.00,West,280,9.0,11.0,69,-99.99,,,-99.99,,2013-01-14 03:22:00,
2013-01-13 20:32:00,3.0,-5.0,-100.00,West,280,10.0,12.0,69,-99.99,,,-99.99,,2013-01-14 03:32:00,
2013-01-13 20:42:00,3.0,-5.0,-100.00,West,280,9.0,11.0,69,-99.99,,,-99.99,,2013-01-14 03:42:00,
2013-01-13 20:53:00,3.0,-5.0,-100.00,West,280,9.0,11.0,69,-99.99,,,-99.99,,2013-01-14 03:53:00,
2013-01-13 21:02:00,3.0,-5.0,-100.00,West,280,10.0,12.0,69,-99.99,,,-99.99,,2013-01-14 04:02:00,
2013-01-13 21:12:00,3.0,-5.0,-100.00,West,280,10.0,12.0,69,-99.99,,,-99.99,,2013-01-14 04:12:00,
2013-01-13 21:22:00,3.0,-5.0,-100.00,West,280,9.0,11.0,69,-99.99,,,-99.99,,2013-01-14 04:22:00,
2013-01-13 21:32:00,3.0,-5.0,-100.00,West,270,9.0,10.0,70,-99.99,,,-99.99,,2013-01-14 04:32:00,
2013-01-13 21:42:00,2.0,-5.0,-100.00,West,265,7.0,10.0,70,-99.99,,,-99.99,,2013-01-14 04:42:00,
2013-01-13 21:53:00,2.0,-5.0,-100.00,West,265,7.0,10.0,70,-99.99,,,-99.99,,2013-01-14 04:53:00,
2013-01-13 22:03:00,3.0,-5.0,-100.00,West,280,7.0,9.0,70,-99.99,,,-99.99,,2013-01-14 05:03:00,
2013-01-13 22:12:00,3.0,-5.0,-100.00,West,280,7.0,9.0,70,-99.99,,,-99.99,,2013-01-14 05:12:00,
2013-01-13 22:22:00,3.0,-5.0,-100.00,West,275,11.0,12.0,70,-99.99,,,-99.99,,2013-01-14 05:22:00,
2013-01-13 22:32:00,3.0,-5.0,-100.00,West,265,9.0,15.0,70,-99.99,,,-99.99,,2013-01-14 05:32:00,
2013-01-13 22:42:00,3.0,-5.0,-100.00,West,260,7.0,12.0,70,-99.99,,,-99.99,,2013-01-14 05:42:00,
2013-01-13 22:53:00,3.0,-5.0,-100.00,West,260,7.0,12.0,70,-99.99,,,-99.99,,2013-01-14 05:53:00,
2013-01-13 23:03:00,2.0,-5.0,-100.00,SE,125,1.0,6.0,70,-99.99,,,-99.99,,2013-01-14 06:03:00,
2013-01-13 23:12:00,2.0,-5.0,-100.00,SE,125,1.0,6.0,70,-99.99,,,-99.99,,2013-01-14 06:12:00,
2013-01-13 23:22:00,2.0,-6.0,-100.00,SW,230,5.0,7.0,70,-99.99,,,-99.99,,2013-01-14 06:22:00,
2013-01-13 23:33:00,1.0,-6.0,-100.00,WSW,250,9.0,11.0,71,-99.99,,,-99.99,,2013-01-14 06:33:00,
2013-01-13 23:43:00,1.0,-6.0,-100.00,WSW,255,10.0,12.0,71,-99.99,,,-99.99,,2013-01-14 06:43:00,
2013-01-13 23:53:00,1.0,-6.0,-100.00,WSW,255,10.0,12.0,71,-99.99,,,-99.99,,2013-01-14 06:53:00,